KAWO/AWO METAR and TAF weather

Enter ICAO airport designator
Station Type Date Time Source
KAWO METAR 2022/01/25 05:56 UTC NOAA

KAWO 250556Z AUTO 00000KT 10SM OVC004 03/02 A3035 RMK AO2 SLP283 6//// T00280022 10039 20028 51007 PNO $


Station Type Date Time Source
KAWO Decoded METAR 2022/01/25 05:56 UTC NOAA

Arlington Municipal, WA, United States (KAWO) 48-10N 122-10W
Jan 25, 2022 - 12:56 AM EST / 2022.01.25 0556 UTC
Wind: Calm:0
Visibility: 10 mile(s):0
Sky conditions: overcast
Temperature: 37.0 F (2.8 C)
Dew Point: 36.0 F (2.2 C)
Relative Humidity: 95%
Pressure (altimeter): 30.35 in. Hg (1027 hPa)
Pressure tendency: 0.02 inches (0.7 hPa) higher than three hours ago
ob: KAWO 250556Z AUTO 00000KT 10SM OVC004 03/02 A3035 RMK AO2 SLP283 6//// T00280022 10039 20028 51007 PNO
cycle: 6

Station Type Date Time Source
KAWO TAF UTC NOAA

Error!

Example: see airport list